sensor_id;sensor_type;location;lat;lon;timestamp;P1;durP1;ratioP1;P2;durP2;ratioP2
32934;SDS011;19292;51.532;7.650;2022-08-01T00:01:32;18.88;;;17.02;;
32934;SDS011;19292;51.532;7.650;2022-08-01T00:03:57;18.90;;;16.63;;
32934;SDS011;19292;51.532;7.650;2022-08-01T00:06:23;20.50;;;18.33;;
32934;SDS011;19292;51.532;7.650;2022-08-01T00:08:48;19.88;;;17.33;;
32934;SDS011;19292;51.532;7.650;2022-08-01T00:11:14;19.65;;;17.48;;
32934;SDS011;19292;51.532;7.650;2022-08-01T00:13:39;20.27;;;18.13;;
32934;SDS011;19292;51.532;7.650;2022-08-01T00:16:07;20.85;;;18.80;;
32934;SDS011;19292;51.532;7.650;2022-08-01T00:18:33;19.40;;;17.35;;
32934;SDS011;19292;51.532;7.650;2022-08-01T00:21:00;22.38;;;19.95;;
32934;SDS011;19292;51.532;7.650;2022-08-01T00:23:26;22.73;;;20.55;;
32934;SDS011;19292;51.532;7.650;2022-08-01T00:25:54;22.20;;;20.30;;
32934;SDS011;19292;51.532;7.650;2022-08-01T00:28:20;23.73;;;21.52;;
32934;SDS011;19292;51.532;7.650;2022-08-01T00:30:45;23.02;;;20.67;;
32934;SDS011;19292;51.532;7.650;2022-08-01T00:33:10;24.48;;;22.45;;
32934;SDS011;19292;51.532;7.650;2022-08-01T00:35:36;24.83;;;22.63;;
32934;SDS011;19292;51.532;7.650;2022-08-01T00:38:01;26.60;;;24.40;;
32934;SDS011;19292;51.532;7.650;2022-08-01T00:40:26;28.15;;;25.35;;
32934;SDS011;19292;51.532;7.650;2022-08-01T00:42:52;27.25;;;24.98;;
32934;SDS011;19292;51.532;7.650;2022-08-01T00:45:17;28.00;;;25.42;;
32934;SDS011;19292;51.532;7.650;2022-08-01T00:47:43;29.58;;;26.77;;
32934;SDS011;19292;51.532;7.650;2022-08-01T00:50:09;28.35;;;25.75;;
32934;SDS011;19292;51.532;7.650;2022-08-01T00:52:34;29.63;;;27.00;;
32934;SDS011;19292;51.532;7.650;2022-08-01T00:55:00;28.83;;;26.38;;
32934;SDS011;19292;51.532;7.650;2022-08-01T00:57:26;28.58;;;26.17;;
32934;SDS011;19292;51.532;7.650;2022-08-01T00:59:52;32.60;;;29.67;;
32934;SDS011;19292;51.532;7.650;2022-08-01T01:02:18;32.90;;;29.92;;
32934;SDS011;19292;51.532;7.650;2022-08-01T01:04:43;35.05;;;32.05;;
32934;SDS011;19292;51.532;7.650;2022-08-01T01:07:24;39.13;;;35.90;;
32934;SDS011;19292;51.532;7.650;2022-08-01T01:12:31;41.70;;;38.22;;
32934;SDS011;19292;51.532;7.650;2022-08-01T01:15:07;45.15;;;41.42;;
32934;SDS011;19292;51.532;7.650;2022-08-01T01:21:13;45.70;;;41.80;;
32934;SDS011;19292;51.532;7.650;2022-08-01T01:26:40;42.10;;;38.58;;
32934;SDS011;19292;51.532;7.650;2022-08-01T01:31:55;40.65;;;37.33;;
32934;SDS011;19292;51.532;7.650;2022-08-01T01:34:48;38.58;;;35.17;;
32934;SDS011;19292;51.532;7.650;2022-08-01T01:37:15;39.20;;;35.92;;
32934;SDS011;19292;51.532;7.650;2022-08-01T01:39:43;41.20;;;37.65;;
32934;SDS011;19292;51.532;7.650;2022-08-01T01:42:09;45.72;;;41.78;;
32934;SDS011;19292;51.532;7.650;2022-08-01T01:44:35;46.40;;;42.50;;
32934;SDS011;19292;51.532;7.650;2022-08-01T01:47:01;44.03;;;40.33;;
32934;SDS011;19292;51.532;7.650;2022-08-01T01:49:27;43.00;;;39.22;;
32934;SDS011;19292;51.532;7.650;2022-08-01T01:51:54;42.50;;;38.97;;
32934;SDS011;19292;51.532;7.650;2022-08-01T01:54:25;44.25;;;40.35;;
32934;SDS011;19292;51.532;7.650;2022-08-01T01:56:55;39.40;;;35.97;;
32934;SDS011;19292;51.532;7.650;2022-08-01T01:59:24;39.20;;;35.75;;
32934;SDS011;19292;51.532;7.650;2022-08-01T02:01:51;39.60;;;35.97;;
32934;SDS011;19292;51.532;7.650;2022-08-01T02:04:18;37.33;;;34.08;;
32934;SDS011;19292;51.532;7.650;2022-08-01T02:06:45;38.40;;;34.85;;
32934;SDS011;19292;51.532;7.650;2022-08-01T02:09:11;38.63;;;33.78;;
32934;SDS011;19292;51.532;7.650;2022-08-01T02:11:39;37.38;;;34.17;;
32934;SDS011;19292;51.532;7.650;2022-08-01T02:14:05;38.53;;;34.80;;
32934;SDS011;19292;51.532;7.650;2022-08-01T02:16:33;38.15;;;34.38;;
32934;SDS011;19292;51.532;7.650;2022-08-01T02:19:00;37.35;;;34.05;;
32934;SDS011;19292;51.532;7.650;2022-08-01T02:21:32;40.47;;;36.83;;
32934;SDS011;19292;51.532;7.650;2022-08-01T02:24:01;39.30;;;35.92;;
32934;SDS011;19292;51.532;7.650;2022-08-01T02:26:30;42.90;;;39.08;;
32934;SDS011;19292;51.532;7.650;2022-08-01T02:28:57;43.33;;;39.60;;
32934;SDS011;19292;51.532;7.650;2022-08-01T02:31:24;39.78;;;35.88;;
32934;SDS011;19292;51.532;7.650;2022-08-01T02:33:53;39.42;;;35.92;;
32934;SDS011;19292;51.532;7.650;2022-08-01T02:36:23;41.28;;;37.17;;
32934;SDS011;19292;51.532;7.650;2022-08-01T02:38:50;38.55;;;34.90;;
32934;SDS011;19292;51.532;7.650;2022-08-01T02:41:18;41.88;;;37.88;;
32934;SDS011;19292;51.532;7.650;2022-08-01T02:43:46;42.72;;;38.67;;
32934;SDS011;19292;51.532;7.650;2022-08-01T02:46:20;40.05;;;36.65;;
32934;SDS011;19292;51.532;7.650;2022-08-01T02:48:47;43.38;;;39.63;;
32934;SDS011;19292;51.532;7.650;2022-08-01T02:51:15;41.33;;;37.70;;
32934;SDS011;19292;51.532;7.650;2022-08-01T02:53:46;39.75;;;36.10;;
32934;SDS011;19292;51.532;7.650;2022-08-01T02:56:12;43.58;;;39.65;;
32934;SDS011;19292;51.532;7.650;2022-08-01T02:58:38;44.08;;;40.15;;
32934;SDS011;19292;51.532;7.650;2022-08-01T03:01:04;41.90;;;38.33;;
32934;SDS011;19292;51.532;7.650;2022-08-01T03:03:31;37.65;;;34.50;;
32934;SDS011;19292;51.532;7.650;2022-08-01T03:05:56;40.17;;;36.83;;
32934;SDS011;19292;51.532;7.650;2022-08-01T03:08:22;38.45;;;35.03;;
32934;SDS011;19292;51.532;7.650;2022-08-01T03:10:49;36.90;;;33.90;;
32934;SDS011;19292;51.532;7.650;2022-08-01T03:13:15;39.15;;;35.78;;
32934;SDS011;19292;51.532;7.650;2022-08-01T03:15:41;37.13;;;34.15;;
32934;SDS011;19292;51.532;7.650;2022-08-01T03:18:07;36.35;;;33.38;;
32934;SDS011;19292;51.532;7.650;2022-08-01T03:20:34;33.63;;;30.80;;
32934;SDS011;19292;51.532;7.650;2022-08-01T03:23:01;33.45;;;30.50;;
32934;SDS011;19292;51.532;7.650;2022-08-01T03:25:29;35.38;;;32.20;;
32934;SDS011;19292;51.532;7.650;2022-08-01T03:27:58;34.50;;;31.55;;
32934;SDS011;19292;51.532;7.650;2022-08-01T03:30:25;35.45;;;32.42;;
32934;SDS011;19292;51.532;7.650;2022-08-01T03:32:51;32.38;;;29.35;;
32934;SDS011;19292;51.532;7.650;2022-08-01T03:35:17;32.40;;;29.25;;
32934;SDS011;19292;51.532;7.650;2022-08-01T03:37:47;33.13;;;29.98;;
32934;SDS011;19292;51.532;7.650;2022-08-01T03:40:23;33.17;;;30.27;;
32934;SDS011;19292;51.532;7.650;2022-08-01T03:42:52;34.92;;;31.48;;
32934;SDS011;19292;51.532;7.650;2022-08-01T03:45:27;34.97;;;31.58;;
32934;SDS011;19292;51.532;7.650;2022-08-01T03:47:59;32.40;;;29.58;;
32934;SDS011;19292;51.532;7.650;2022-08-01T03:50:25;35.10;;;31.07;;
32934;SDS011;19292;51.532;7.650;2022-08-01T03:52:52;37.92;;;34.33;;
32934;SDS011;19292;51.532;7.650;2022-08-01T03:55:18;40.20;;;36.47;;
32934;SDS011;19292;51.532;7.650;2022-08-01T03:57:46;39.58;;;36.00;;
32934;SDS011;19292;51.532;7.650;2022-08-01T04:00:12;40.13;;;36.45;;
32934;SDS011;19292;51.532;7.650;2022-08-01T04:02:38;33.75;;;30.67;;
32934;SDS011;19292;51.532;7.650;2022-08-01T04:05:04;29.88;;;27.13;;
32934;SDS011;19292;51.532;7.650;2022-08-01T04:07:30;27.55;;;24.88;;
32934;SDS011;19292;51.532;7.650;2022-08-01T04:09:57;26.63;;;23.48;;
32934;SDS011;19292;51.532;7.650;2022-08-01T04:12:25;25.75;;;23.45;;
32934;SDS011;19292;51.532;7.650;2022-08-01T04:14:50;24.48;;;22.25;;
32934;SDS011;19292;51.532;7.650;2022-08-01T04:17:16;24.25;;;21.80;;
32934;SDS011;19292;51.532;7.650;2022-08-01T04:19:42;21.88;;;19.45;;
32934;SDS011;19292;51.532;7.650;2022-08-01T04:22:08;19.75;;;17.77;;
32934;SDS011;19292;51.532;7.650;2022-08-01T04:24:34;19.77;;;17.92;;
32934;SDS011;19292;51.532;7.650;2022-08-01T04:27:01;19.00;;;16.75;;
32934;SDS011;19292;51.532;7.650;2022-08-01T04:29:29;17.60;;;15.68;;
32934;SDS011;19292;51.532;7.650;2022-08-01T04:31:56;17.70;;;15.85;;
32934;SDS011;19292;51.532;7.650;2022-08-01T04:34:23;15.32;;;13.80;;
32934;SDS011;19292;51.532;7.650;2022-08-01T04:36:51;14.45;;;12.98;;
32934;SDS011;19292;51.532;7.650;2022-08-01T04:39:18;13.73;;;12.32;;
32934;SDS011;19292;51.532;7.650;2022-08-01T04:41:44;13.23;;;11.98;;
32934;SDS011;19292;51.532;7.650;2022-08-01T04:46:41;12.88;;;10.63;;
32934;SDS011;19292;51.532;7.650;2022-08-01T04:49:07;13.68;;;11.45;;
32934;SDS011;19292;51.532;7.650;2022-08-01T04:51:34;12.55;;;10.93;;
32934;SDS011;19292;51.532;7.650;2022-08-01T04:53:59;13.52;;;12.13;;
32934;SDS011;19292;51.532;7.650;2022-08-01T04:56:25;14.48;;;12.98;;
32934;SDS011;19292;51.532;7.650;2022-08-01T04:58:51;13.90;;;12.32;;
32934;SDS011;19292;51.532;7.650;2022-08-01T05:01:35;16.08;;;11.82;;
32934;SDS011;19292;51.532;7.650;2022-08-01T05:04:00;13.48;;;11.95;;
32934;SDS011;19292;51.532;7.650;2022-08-01T05:06:25;12.90;;;10.90;;
32934;SDS011;19292;51.532;7.650;2022-08-01T05:08:51;12.02;;;10.82;;
32934;SDS011;19292;51.532;7.650;2022-08-01T05:11:16;14.10;;;11.60;;
32934;SDS011;19292;51.532;7.650;2022-08-01T05:13:41;13.27;;;11.75;;
32934;SDS011;19292;51.532;7.650;2022-08-01T05:16:07;12.75;;;10.35;;
32934;SDS011;19292;51.532;7.650;2022-08-01T05:18:32;14.13;;;12.05;;
32934;SDS011;19292;51.532;7.650;2022-08-01T05:20:57;14.48;;;12.95;;
32934;SDS011;19292;51.532;7.650;2022-08-01T05:23:23;14.02;;;12.73;;
32934;SDS011;19292;51.532;7.650;2022-08-01T05:25:48;15.20;;;12.55;;
32934;SDS011;19292;51.532;7.650;2022-08-01T05:28:14;14.13;;;12.63;;
32934;SDS011;19292;51.532;7.650;2022-08-01T05:30:40;15.27;;;12.18;;
32934;SDS011;19292;51.532;7.650;2022-08-01T05:33:05;14.57;;;11.13;;
32934;SDS011;19292;51.532;7.650;2022-08-01T05:35:31;12.02;;;10.85;;
32934;SDS011;19292;51.532;7.650;2022-08-01T05:37:56;12.23;;;10.90;;
32934;SDS011;19292;51.532;7.650;2022-08-01T05:40:21;14.80;;;11.95;;
32934;SDS011;19292;51.532;7.650;2022-08-01T05:42:47;12.90;;;11.55;;
32934;SDS011;19292;51.532;7.650;2022-08-01T05:45:12;14.07;;;12.05;;
32934;SDS011;19292;51.532;7.650;2022-08-01T05:47:37;13.40;;;12.02;;
32934;SDS011;19292;51.532;7.650;2022-08-01T05:50:03;14.73;;;12.63;;
32934;SDS011;19292;51.532;7.650;2022-08-01T05:52:28;12.48;;;11.20;;
32934;SDS011;19292;51.532;7.650;2022-08-01T05:54:55;13.75;;;12.25;;
32934;SDS011;19292;51.532;7.650;2022-08-01T05:57:21;12.80;;;11.50;;
32934;SDS011;19292;51.532;7.650;2022-08-01T05:59:46;12.90;;;10.23;;
32934;SDS011;19292;51.532;7.650;2022-08-01T06:02:11;11.93;;;10.73;;
32934;SDS011;19292;51.532;7.650;2022-08-01T06:04:37;10.90;;;9.80;;
32934;SDS011;19292;51.532;7.650;2022-08-01T06:07:02;12.07;;;10.45;;
32934;SDS011;19292;51.532;7.650;2022-08-01T06:09:27;11.77;;;9.93;;
32934;SDS011;19292;51.532;7.650;2022-08-01T06:11:53;10.00;;;8.65;;
32934;SDS011;19292;51.532;7.650;2022-08-01T06:14:19;9.00;;;8.10;;
32934;SDS011;19292;51.532;7.650;2022-08-01T06:16:44;9.50;;;8.23;;
32934;SDS011;19292;51.532;7.650;2022-08-01T06:19:09;9.45;;;8.18;;
32934;SDS011;19292;51.532;7.650;2022-08-01T06:21:35;9.70;;;7.55;;
32934;SDS011;19292;51.532;7.650;2022-08-01T06:24:00;8.40;;;7.43;;
32934;SDS011;19292;51.532;7.650;2022-08-01T06:26:26;9.93;;;8.48;;
32934;SDS011;19292;51.532;7.650;2022-08-01T06:28:51;8.40;;;7.38;;
32934;SDS011;19292;51.532;7.650;2022-08-01T06:31:16;9.80;;;8.90;;
32934;SDS011;19292;51.532;7.650;2022-08-01T06:33:42;10.73;;;7.57;;
32934;SDS011;19292;51.532;7.650;2022-08-01T06:36:07;8.60;;;7.70;;
32934;SDS011;19292;51.532;7.650;2022-08-01T06:38:34;10.50;;;9.10;;
32934;SDS011;19292;51.532;7.650;2022-08-01T06:40:59;9.60;;;7.82;;
32934;SDS011;19292;51.532;7.650;2022-08-01T06:43:24;9.50;;;8.60;;
32934;SDS011;19292;51.532;7.650;2022-08-01T06:45:50;12.65;;;8.93;;
32934;SDS011;19292;51.532;7.650;2022-08-01T06:48:15;9.48;;;8.52;;
32934;SDS011;19292;51.532;7.650;2022-08-01T06:50:40;11.65;;;9.63;;
32934;SDS011;19292;51.532;7.650;2022-08-01T06:53:06;11.80;;;9.88;;
32934;SDS011;19292;51.532;7.650;2022-08-01T06:55:31;11.65;;;10.50;;
32934;SDS011;19292;51.532;7.650;2022-08-01T06:57:57;12.52;;;11.15;;
32934;SDS011;19292;51.532;7.650;2022-08-01T07:00:23;13.30;;;12.00;;
32934;SDS011;19292;51.532;7.650;2022-08-01T07:02:51;12.65;;;11.50;;
32934;SDS011;19292;51.532;7.650;2022-08-01T07:05:17;14.82;;;13.32;;
32934;SDS011;19292;51.532;7.650;2022-08-01T07:07:43;13.63;;;12.32;;
32934;SDS011;19292;51.532;7.650;2022-08-01T07:10:09;17.45;;;15.77;;
32934;SDS011;19292;51.532;7.650;2022-08-01T07:12:35;17.90;;;16.20;;
32934;SDS011;19292;51.532;7.650;2022-08-01T07:15:04;17.92;;;15.98;;
32934;SDS011;19292;51.532;7.650;2022-08-01T07:17:30;15.93;;;14.52;;
32934;SDS011;19292;51.532;7.650;2022-08-01T07:19:55;14.88;;;13.25;;
32934;SDS011;19292;51.532;7.650;2022-08-01T07:22:21;14.38;;;13.02;;
32934;SDS011;19292;51.532;7.650;2022-08-01T07:24:46;14.35;;;13.05;;
32934;SDS011;19292;51.532;7.650;2022-08-01T07:27:11;12.93;;;11.82;;
32934;SDS011;19292;51.532;7.650;2022-08-01T07:29:37;10.20;;;9.23;;
32934;SDS011;19292;51.532;7.650;2022-08-01T07:32:02;11.48;;;9.43;;
32934;SDS011;19292;51.532;7.650;2022-08-01T07:34:28;10.18;;;8.88;;
32934;SDS011;19292;51.532;7.650;2022-08-01T07:36:53;8.15;;;7.32;;
32934;SDS011;19292;51.532;7.650;2022-08-01T07:39:19;9.35;;;8.27;;
32934;SDS011;19292;51.532;7.650;2022-08-01T07:41:44;10.20;;;8.77;;
32934;SDS011;19292;51.532;7.650;2022-08-01T07:44:10;9.60;;;8.68;;
32934;SDS011;19292;51.532;7.650;2022-08-01T07:46:35;8.23;;;7.43;;
32934;SDS011;19292;51.532;7.650;2022-08-01T07:49:01;10.15;;;9.05;;
32934;SDS011;19292;51.532;7.650;2022-08-01T07:51:26;9.88;;;9.00;;
32934;SDS011;19292;51.532;7.650;2022-08-01T07:53:51;9.80;;;8.90;;
32934;SDS011;19292;51.532;7.650;2022-08-01T07:56:17;10.07;;;9.07;;
32934;SDS011;19292;51.532;7.650;2022-08-01T07:58:42;9.63;;;8.73;;
32934;SDS011;19292;51.532;7.650;2022-08-01T08:01:08;9.95;;;9.00;;
32934;SDS011;19292;51.532;7.650;2022-08-01T08:03:33;9.90;;;8.90;;
32934;SDS011;19292;51.532;7.650;2022-08-01T08:05:58;9.60;;;8.65;;
32934;SDS011;19292;51.532;7.650;2022-08-01T08:08:24;10.13;;;9.20;;
32934;SDS011;19292;51.532;7.650;2022-08-01T08:10:49;10.32;;;8.15;;
32934;SDS011;19292;51.532;7.650;2022-08-01T08:13:17;13.05;;;9.45;;
32934;SDS011;19292;51.532;7.650;2022-08-01T08:15:42;9.10;;;8.40;;
32934;SDS011;19292;51.532;7.650;2022-08-01T08:18:08;10.43;;;9.52;;
32934;SDS011;19292;51.532;7.650;2022-08-01T08:20:33;9.98;;;9.07;;
32934;SDS011;19292;51.532;7.650;2022-08-01T08:22:59;9.82;;;8.93;;
32934;SDS011;19292;51.532;7.650;2022-08-01T08:25:25;10.07;;;9.05;;
32934;SDS011;19292;51.532;7.650;2022-08-01T08:27:51;9.73;;;8.68;;
32934;SDS011;19292;51.532;7.650;2022-08-01T08:30:16;9.55;;;8.63;;
32934;SDS011;19292;51.532;7.650;2022-08-01T08:32:42;9.90;;;9.00;;
32934;SDS011;19292;51.532;7.650;2022-08-01T08:35:08;9.27;;;8.40;;
32934;SDS011;19292;51.532;7.650;2022-08-01T08:37:34;9.00;;;8.10;;
32934;SDS011;19292;51.532;7.650;2022-08-01T08:40:00;9.00;;;8.10;;
32934;SDS011;19292;51.532;7.650;2022-08-01T08:42:27;9.20;;;8.48;;
32934;SDS011;19292;51.532;7.650;2022-08-01T08:44:52;9.23;;;8.32;;
32934;SDS011;19292;51.532;7.650;2022-08-01T08:47:20;9.82;;;8.93;;
32934;SDS011;19292;51.532;7.650;2022-08-01T08:49:47;9.93;;;9.02;;
32934;SDS011;19292;51.532;7.650;2022-08-01T08:52:14;9.15;;;8.10;;
32934;SDS011;19292;51.532;7.650;2022-08-01T08:54:40;9.65;;;8.65;;
32934;SDS011;19292;51.532;7.650;2022-08-01T08:57:06;9.15;;;8.35;;
32934;SDS011;19292;51.532;7.650;2022-08-01T08:59:32;10.15;;;9.25;;
32934;SDS011;19292;51.532;7.650;2022-08-01T09:01:58;9.88;;;9.00;;
32934;SDS011;19292;51.532;7.650;2022-08-01T09:04:26;10.95;;;9.50;;
32934;SDS011;19292;51.532;7.650;2022-08-01T09:06:52;7.90;;;7.05;;
32934;SDS011;19292;51.532;7.650;2022-08-01T09:09:18;6.43;;;5.82;;
32934;SDS011;19292;51.532;7.650;2022-08-01T09:11:44;6.30;;;5.70;;
32934;SDS011;19292;51.532;7.650;2022-08-01T09:14:10;6.70;;;5.10;;
32934;SDS011;19292;51.532;7.650;2022-08-01T09:16:37;7.97;;;6.15;;
32934;SDS011;19292;51.532;7.650;2022-08-01T09:19:10;7.10;;;5.53;;
32934;SDS011;19292;51.532;7.650;2022-08-01T09:21:38;10.60;;;9.65;;
32934;SDS011;19292;51.532;7.650;2022-08-01T09:24:12;7.03;;;6.32;;
32934;SDS011;19292;51.532;7.650;2022-08-01T09:26:39;7.25;;;6.53;;
32934;SDS011;19292;51.532;7.650;2022-08-01T09:29:05;5.65;;;5.15;;
32934;SDS011;19292;51.532;7.650;2022-08-01T09:31:41;6.40;;;5.90;;
32934;SDS011;19292;51.532;7.650;2022-08-01T09:34:08;7.05;;;6.45;;
32934;SDS011;19292;51.532;7.650;2022-08-01T09:36:51;7.13;;;6.13;;
32934;SDS011;19292;51.532;7.650;2022-08-01T09:39:25;5.78;;;5.18;;
32934;SDS011;19292;51.532;7.650;2022-08-01T09:41:52;6.03;;;5.53;;
32934;SDS011;19292;51.532;7.650;2022-08-01T09:44:19;5.85;;;5.35;;
32934;SDS011;19292;51.532;7.650;2022-08-01T09:46:54;5.93;;;5.30;;
32934;SDS011;19292;51.532;7.650;2022-08-01T09:49:26;5.88;;;5.38;;
32934;SDS011;19292;51.532;7.650;2022-08-01T09:51:53;5.13;;;4.63;;
32934;SDS011;19292;51.532;7.650;2022-08-01T09:54:31;4.88;;;4.47;;
32934;SDS011;19292;51.532;7.650;2022-08-01T09:57:12;5.15;;;4.75;;
32934;SDS011;19292;51.532;7.650;2022-08-01T09:59:38;4.63;;;4.22;;
32934;SDS011;19292;51.532;7.650;2022-08-01T10:02:07;4.72;;;3.42;;
32934;SDS011;19292;51.532;7.650;2022-08-01T10:04:35;5.20;;;4.80;;
32934;SDS011;19292;51.532;7.650;2022-08-01T10:07:03;4.10;;;3.65;;
32934;SDS011;19292;51.532;7.650;2022-08-01T10:09:31;6.63;;;3.92;;
32934;SDS011;19292;51.532;7.650;2022-08-01T10:11:58;3.65;;;3.42;;
32934;SDS011;19292;51.532;7.650;2022-08-01T10:14:24;4.00;;;3.70;;
32934;SDS011;19292;51.532;7.650;2022-08-01T10:16:51;3.50;;;3.03;;
32934;SDS011;19292;51.532;7.650;2022-08-01T10:19:18;2.83;;;2.45;;
32934;SDS011;19292;51.532;7.650;2022-08-01T10:21:46;3.08;;;2.22;;
32934;SDS011;19292;51.532;7.650;2022-08-01T10:24:14;2.25;;;1.90;;
32934;SDS011;19292;51.532;7.650;2022-08-01T10:26:40;2.25;;;1.95;;
32934;SDS011;19292;51.532;7.650;2022-08-01T10:29:06;2.47;;;1.83;;
32934;SDS011;19292;51.532;7.650;2022-08-01T10:31:32;1.50;;;1.40;;
32934;SDS011;19292;51.532;7.650;2022-08-01T10:33:58;1.42;;;1.33;;
32934;SDS011;19292;51.532;7.650;2022-08-01T10:36:24;1.63;;;1.52;;
32934;SDS011;19292;51.532;7.650;2022-08-01T10:38:49;2.13;;;1.92;;
32934;SDS011;19292;51.532;7.650;2022-08-01T10:41:15;1.95;;;1.85;;
32934;SDS011;19292;51.532;7.650;2022-08-01T10:43:40;2.05;;;1.85;;
32934;SDS011;19292;51.532;7.650;2022-08-01T10:46:06;1.58;;;1.48;;
32934;SDS011;19292;51.532;7.650;2022-08-01T10:51:20;2.35;;;2.15;;
32934;SDS011;19292;51.532;7.650;2022-08-01T10:53:47;2.80;;;2.60;;
32934;SDS011;19292;51.532;7.650;2022-08-01T10:56:15;2.30;;;2.20;;
32934;SDS011;19292;51.532;7.650;2022-08-01T10:58:42;1.70;;;1.60;;
32934;SDS011;19292;51.532;7.650;2022-08-01T11:03:39;1.67;;;1.58;;
32934;SDS011;19292;51.532;7.650;2022-08-01T11:06:05;1.77;;;1.67;;
32934;SDS011;19292;51.532;7.650;2022-08-01T11:08:31;1.75;;;1.65;;
32934;SDS011;19292;51.532;7.650;2022-08-01T11:11:02;1.30;;;1.20;;
32934;SDS011;19292;51.532;7.650;2022-08-01T11:16:38;1.45;;;1.35;;
32934;SDS011;19292;51.532;7.650;2022-08-01T11:19:05;1.40;;;1.30;;
32934;SDS011;19292;51.532;7.650;2022-08-01T11:24:15;1.30;;;1.20;;
32934;SDS011;19292;51.532;7.650;2022-08-01T11:26:40;2.92;;;1.30;;
32934;SDS011;19292;51.532;7.650;2022-08-01T11:30:21;1.50;;;1.40;;
32934;SDS011;19292;51.532;7.650;2022-08-01T11:35:14;1.33;;;1.27;;
32934;SDS011;19292;51.532;7.650;2022-08-01T11:37:40;2.03;;;1.92;;
32934;SDS011;19292;51.532;7.650;2022-08-01T11:42:41;2.58;;;2.38;;
32934;SDS011;19292;51.532;7.650;2022-08-01T11:45:07;2.40;;;2.30;;
32934;SDS011;19292;51.532;7.650;2022-08-01T11:53:04;0.93;;;0.93;;
32934;SDS011;19292;51.532;7.650;2022-08-01T11:55:30;0.80;;;0.80;;
32934;SDS011;19292;51.532;7.650;2022-08-01T11:58:00;0.90;;;0.90;;
32934;SDS011;19292;51.532;7.650;2022-08-01T12:05:25;1.00;;;0.75;;
32934;SDS011;19292;51.532;7.650;2022-08-01T12:07:51;0.60;;;0.60;;
32934;SDS011;19292;51.532;7.650;2022-08-01T12:10:18;2.60;;;0.70;;
32934;SDS011;19292;51.532;7.650;2022-08-01T12:12:45;1.80;;;0.90;;
32934;SDS011;19292;51.532;7.650;2022-08-01T12:15:12;1.90;;;0.88;;
32934;SDS011;19292;51.532;7.650;2022-08-01T12:17:41;2.60;;;0.73;;
32934;SDS011;19292;51.532;7.650;2022-08-01T12:20:10;1.23;;;1.00;;
32934;SDS011;19292;51.532;7.650;2022-08-01T12:22:39;0.70;;;0.70;;
32934;SDS011;19292;51.532;7.650;2022-08-01T12:25:09;1.63;;;0.80;;
32934;SDS011;19292;51.532;7.650;2022-08-01T12:27:36;0.80;;;0.80;;
32934;SDS011;19292;51.532;7.650;2022-08-01T12:30:06;1.10;;;1.10;;
32934;SDS011;19292;51.532;7.650;2022-08-01T12:32:34;1.52;;;1.40;;
32934;SDS011;19292;51.532;7.650;2022-08-01T12:37:51;2.05;;;1.10;;
32934;SDS011;19292;51.532;7.650;2022-08-01T12:40:26;1.08;;;1.00;;
32934;SDS011;19292;51.532;7.650;2022-08-01T12:42:54;1.50;;;0.90;;
32934;SDS011;19292;51.532;7.650;2022-08-01T12:45:21;1.38;;;1.10;;
32934;SDS011;19292;51.532;7.650;2022-08-01T12:47:55;1.80;;;1.50;;
32934;SDS011;19292;51.532;7.650;2022-08-01T12:50:24;1.20;;;1.10;;
32934;SDS011;19292;51.532;7.650;2022-08-01T12:52:53;0.83;;;0.80;;
32934;SDS011;19292;51.532;7.650;2022-08-01T12:57:49;1.67;;;1.30;;
32934;SDS011;19292;51.532;7.650;2022-08-01T13:00:23;1.30;;;1.30;;
32934;SDS011;19292;51.532;7.650;2022-08-01T13:02:59;1.17;;;1.17;;
32934;SDS011;19292;51.532;7.650;2022-08-01T13:08:12;1.30;;;1.30;;
32934;SDS011;19292;51.532;7.650;2022-08-01T13:10:38;2.00;;;1.40;;
32934;SDS011;19292;51.532;7.650;2022-08-01T13:13:04;2.40;;;1.90;;
32934;SDS011;19292;51.532;7.650;2022-08-01T13:15:30;2.03;;;1.70;;
32934;SDS011;19292;51.532;7.650;2022-08-01T13:17:58;1.67;;;1.35;;
32934;SDS011;19292;51.532;7.650;2022-08-01T13:20:28;1.95;;;1.83;;
32934;SDS011;19292;51.532;7.650;2022-08-01T13:22:55;1.52;;;1.48;;
32934;SDS011;19292;51.532;7.650;2022-08-01T13:25:45;2.55;;;1.55;;
32934;SDS011;19292;51.532;7.650;2022-08-01T13:28:24;2.33;;;2.22;;
32934;SDS011;19292;51.532;7.650;2022-08-01T13:30:58;2.63;;;2.42;;
32934;SDS011;19292;51.532;7.650;2022-08-01T13:33:27;4.82;;;2.08;;
32934;SDS011;19292;51.532;7.650;2022-08-01T13:35:54;2.20;;;2.00;;
32934;SDS011;19292;51.532;7.650;2022-08-01T13:38:20;1.83;;;1.67;;
32934;SDS011;19292;51.532;7.650;2022-08-01T13:41:05;2.72;;;1.60;;
32934;SDS011;19292;51.532;7.650;2022-08-01T13:43:31;1.80;;;1.70;;
32934;SDS011;19292;51.532;7.650;2022-08-01T13:45:56;2.45;;;1.73;;
32934;SDS011;19292;51.532;7.650;2022-08-01T13:48:22;1.95;;;1.52;;
32934;SDS011;19292;51.532;7.650;2022-08-01T13:50:48;2.47;;;2.28;;
32934;SDS011;19292;51.532;7.650;2022-08-01T13:53:13;2.38;;;2.17;;
32934;SDS011;19292;51.532;7.650;2022-08-01T13:55:38;5.53;;;2.20;;
32934;SDS011;19292;51.532;7.650;2022-08-01T13:58:04;2.38;;;2.17;;
32934;SDS011;19292;51.532;7.650;2022-08-01T14:00:30;2.78;;;2.10;;
32934;SDS011;19292;51.532;7.650;2022-08-01T14:02:55;2.35;;;2.17;;
32934;SDS011;19292;51.532;7.650;2022-08-01T14:05:20;2.38;;;1.80;;
32934;SDS011;19292;51.532;7.650;2022-08-01T14:07:46;1.92;;;1.70;;
32934;SDS011;19292;51.532;7.650;2022-08-01T14:10:11;3.20;;;1.88;;
32934;SDS011;19292;51.532;7.650;2022-08-01T14:12:36;3.17;;;1.60;;
32934;SDS011;19292;51.532;7.650;2022-08-01T14:15:02;2.38;;;1.70;;
32934;SDS011;19292;51.532;7.650;2022-08-01T14:17:27;2.13;;;1.92;;
32934;SDS011;19292;51.532;7.650;2022-08-01T14:19:53;3.50;;;1.90;;
32934;SDS011;19292;51.532;7.650;2022-08-01T14:22:18;2.00;;;1.73;;
32934;SDS011;19292;51.532;7.650;2022-08-01T14:24:44;2.78;;;1.77;;
32934;SDS011;19292;51.532;7.650;2022-08-01T14:27:09;4.00;;;1.80;;
32934;SDS011;19292;51.532;7.650;2022-08-01T14:29:35;3.33;;;1.98;;
32934;SDS011;19292;51.532;7.650;2022-08-01T14:32:00;2.10;;;1.90;;
32934;SDS011;19292;51.532;7.650;2022-08-01T14:34:25;3.17;;;1.40;;
32934;SDS011;19292;51.532;7.650;2022-08-01T14:36:51;2.83;;;1.95;;
32934;SDS011;19292;51.532;7.650;2022-08-01T14:39:18;1.95;;;1.70;;
32934;SDS011;19292;51.532;7.650;2022-08-01T14:41:43;2.13;;;1.85;;
32934;SDS011;19292;51.532;7.650;2022-08-01T14:44:08;2.88;;;2.67;;
32934;SDS011;19292;51.532;7.650;2022-08-01T14:46:34;2.40;;;2.30;;
32934;SDS011;19292;51.532;7.650;2022-08-01T14:48:59;2.45;;;2.35;;
32934;SDS011;19292;51.532;7.650;2022-08-01T14:51:25;2.75;;;2.55;;
32934;SDS011;19292;51.532;7.650;2022-08-01T14:53:50;5.32;;;2.28;;
32934;SDS011;19292;51.532;7.650;2022-08-01T14:56:16;4.25;;;3.92;;
32934;SDS011;19292;51.532;7.650;2022-08-01T14:58:42;2.47;;;2.15;;
32934;SDS011;19292;51.532;7.650;2022-08-01T15:01:07;2.63;;;2.08;;
32934;SDS011;19292;51.532;7.650;2022-08-01T15:03:32;3.90;;;2.40;;
32934;SDS011;19292;51.532;7.650;2022-08-01T15:05:58;3.53;;;2.45;;
32934;SDS011;19292;51.532;7.650;2022-08-01T15:08:23;2.60;;;2.10;;
32934;SDS011;19292;51.532;7.650;2022-08-01T15:10:49;3.85;;;2.10;;
32934;SDS011;19292;51.532;7.650;2022-08-01T15:13:14;2.42;;;2.17;;
32934;SDS011;19292;51.532;7.650;2022-08-01T15:15:39;3.05;;;2.10;;
32934;SDS011;19292;51.532;7.650;2022-08-01T15:18:05;2.95;;;2.00;;
32934;SDS011;19292;51.532;7.650;2022-08-01T15:20:30;3.45;;;2.28;;
32934;SDS011;19292;51.532;7.650;2022-08-01T15:22:56;4.13;;;2.22;;
32934;SDS011;19292;51.532;7.650;2022-08-01T15:25:21;2.33;;;1.80;;